Time;durP1;ratioP1;P1;durP2;ratioP2;P2;SDS_P1;SDS_P2;PMS_P1;PMS_P2;Temp;Humidity;BMP_temperature;BMP_pressure;BME280_temperature;BME280_humidity;BME280_pressure;Samples;Min_cycle;Max_cycle;Signal;HPM_P1;HPM_P2
2023/07/01 00:00:34;;;;;;;;;;;25.60;50.90;;;;;;1622344;71;704;-59
2023/07/01 00:02:36;;;;;;;;;;;25.60;50.70;;;;;;1641809;71;725;-58
2023/07/01 00:04:38;;;;;;;;;;;25.60;50.80;;;;;;1627009;71;700;-59
2023/07/01 00:06:45;;;;;;;;;;;25.60;50.70;;;;;;1616041;71;727;-58
2023/07/01 00:08:44;;;;;;;;;;;25.70;50.70;;;;;;1643134;71;1274;-56
2023/07/01 00:10:46;;;;;;;;;;;25.60;50.80;;;;;;1617380;71;1930;-56
2023/07/01 00:12:48;;;;;;;;;;;25.60;51.00;;;;;;1621826;71;1531;-58
2023/07/01 00:14:49;;;;;;;;;;;25.60;50.90;;;;;;1629876;71;685;-59
2023/07/01 00:16:51;;;;;;;;;;;25.60;50.90;;;;;;1613981;71;783;-58
2023/07/01 00:18:53;;;;;;;;;;;25.50;50.80;;;;;;1635092;70;1128;-58
2023/07/01 00:20:55;;;;;;;;;;;25.60;50.80;;;;;;1621144;71;796;-57
2023/07/01 00:22:57;;;;;;;;;;;25.60;50.80;;;;;;1627785;71;733;-58
2023/07/01 00:24:59;;;;;;;;;;;25.60;50.70;;;;;;1616281;71;713;-58
2023/07/01 00:27:01;;;;;;;;;;;25.70;50.70;;;;;;1642957;71;1326;-58
2023/07/01 00:29:03;;;;;;;;;;;25.70;50.50;;;;;;1637382;71;1126;-59
2023/07/01 00:31:04;;;;;;;;;;;25.70;50.60;;;;;;1638763;71;1933;-58
2023/07/01 00:33:06;;;;;;;;;;;25.70;50.60;;;;;;1635186;71;758;-60
2023/07/01 00:35:08;;;;;;;;;;;25.70;50.40;;;;;;1616038;71;801;-56
2023/07/01 00:37:10;;;;;;;;;;;25.70;50.40;;;;;;1622449;71;734;-58
2023/07/01 00:39:12;;;;;;;;;;;25.70;50.20;;;;;;1642578;71;1106;-60
2023/07/01 00:41:17;;;;;;;;;;;25.70;50.40;;;;;;1618653;71;1512;-57
2023/07/01 00:43:17;;;;;;;;;;;25.70;50.40;;;;;;1615807;71;1551;-58
2023/07/01 00:45:19;;;;;;;;;;;25.70;50.50;;;;;;1629455;71;728;-58
2023/07/01 00:47:21;;;;;;;;;;;25.70;50.50;;;;;;1619114;71;764;-59
2023/07/01 00:49:23;;;;;;;;;;;25.70;50.30;;;;;;1629932;71;1928;-57
2023/07/01 00:51:25;;;;;;;;;;;25.80;50.40;;;;;;1617876;71;673;-56
2023/07/01 00:53:27;;;;;;;;;;;25.70;50.50;;;;;;1633733;71;709;-59
2023/07/01 00:55:29;;;;;;;;;;;25.70;50.50;;;;;;1621239;71;1537;-58
2023/07/01 00:57:30;;;;;;;;;;;25.70;50.40;;;;;;1619858;71;747;-58
2023/07/01 00:59:32;;;;;;;;;;;25.70;50.40;;;;;;1640961;71;1105;-59
2023/07/01 01:01:35;;;;;;;;;;;25.70;50.50;;;;;;1624303;71;778;-59
2023/07/01 01:03:39;;;;;;;;;;;25.70;50.40;;;;;;1626285;71;731;-57
2023/07/01 01:05:42;;;;;;;;;;;25.70;50.60;;;;;;1639379;71;1685;-57
2023/07/01 01:07:46;;;;;;;;;;;25.60;50.50;;;;;;1633858;71;1925;-58
2023/07/01 01:09:55;;;;;;;;;;;25.60;50.70;;;;;;1616801;71;2009;-58
2023/07/01 01:11:57;;;;;;;;;;;25.60;50.80;;;;;;1638566;71;695;-60
2023/07/01 01:14:00;;;;;;;;;;;25.70;50.50;;;;;;1612332;71;797;-59
2023/07/01 01:16:02;;;;;;;;;;;25.70;50.60;;;;;;1647727;71;710;-58
2023/07/01 01:18:06;;;;;;;;;;;25.70;50.70;;;;;;1634982;71;1113;-57
2023/07/01 01:20:20;;;;;;;;;;;25.70;50.50;;;;;;1618616;71;720;-58
2023/07/01 01:22:20;;;;;;;;;;;25.60;50.60;;;;;;1626924;71;1613;-59
2023/07/01 01:24:22;;;;;;;;;;;25.60;50.60;;;;;;1632723;71;734;-57
2023/07/01 01:26:23;;;;;;;;;;;25.70;50.50;;;;;;1627036;71;755;-59
2023/07/01 01:28:25;;;;;;;;;;;25.60;50.70;;;;;;1645793;71;1177;-57
2023/07/01 01:30:33;;;;;;;;;;;25.60;50.80;;;;;;1624241;71;1925;-57
2023/07/01 01:32:35;;;;;;;;;;;25.70;50.50;;;;;;1622712;71;672;-57
2023/07/01 01:34:37;;;;;;;;;;;25.70;50.40;;;;;;1625696;71;626;-57
2023/07/01 01:36:41;;;;;;;;;;;25.70;50.20;;;;;;1634501;71;1560;-59
2023/07/01 01:38:43;;;;;;;;;;;25.60;50.10;;;;;;1615793;71;1858;-59
2023/07/01 01:40:59;;;;;;;;;;;25.70;50.30;;;;;;1639345;71;772;-57
2023/07/01 01:43:05;;;;;;;;;;;25.70;50.40;;;;;;1593792;71;1186;-58
2023/07/01 01:45:07;;;;;;;;;;;25.60;50.20;;;;;;1591833;71;1031;-58
2023/07/01 01:47:09;;;;;;;;;;;25.70;50.20;;;;;;1627411;71;905;-58
2023/07/01 01:49:12;;;;;;;;;;;25.60;50.20;;;;;;1634073;71;1147;-59
2023/07/01 01:51:14;;;;;;;;;;;25.70;50.00;;;;;;1631421;71;1912;-58
2023/07/01 01:53:16;;;;;;;;;;;25.70;49.90;;;;;;1638997;71;816;-58
2023/07/01 01:55:18;;;;;;;;;;;25.70;49.70;;;;;;1640595;71;714;-58
2023/07/01 01:57:20;;;;;;;;;;;25.70;49.80;;;;;;1639171;71;701;-59
2023/07/01 01:59:22;;;;;;;;;;;25.70;49.90;;;;;;1620836;70;1124;-58
2023/07/01 02:01:24;;;;;;;;;;;25.70;49.80;;;;;;1642398;71;797;-58
2023/07/01 02:03:25;;;;;;;;;;;25.70;50.00;;;;;;1639872;71;624;-58
2023/07/01 02:05:27;;;;;;;;;;;25.70;49.90;;;;;;1635815;71;1202;-58
2023/07/01 02:07:29;;;;;;;;;;;25.70;50.00;;;;;;1633767;71;661;-61
2023/07/01 02:09:31;;;;;;;;;;;25.70;49.80;;;;;;1638346;71;1117;-58
2023/07/01 02:11:33;;;;;;;;;;;25.80;49.70;;;;;;1638192;71;1897;-58
2023/07/01 02:13:35;;;;;;;;;;;25.80;49.50;;;;;;1629764;71;717;-57
2023/07/01 02:15:37;;;;;;;;;;;25.80;49.40;;;;;;1636809;71;737;-55
2023/07/01 02:17:39;;;;;;;;;;;25.80;49.90;;;;;;1628776;71;756;-56
2023/07/01 02:19:41;;;;;;;;;;;25.70;50.00;;;;;;1624620;71;1558;-58
2023/07/01 02:21:43;;;;;;;;;;;25.60;50.10;;;;;;1632048;71;682;-59
2023/07/01 02:23:45;;;;;;;;;;;25.60;50.40;;;;;;1620409;71;772;-59
2023/07/01 02:25:47;;;;;;;;;;;25.60;50.70;;;;;;1626685;71;716;-59
2023/07/01 02:27:48;;;;;;;;;;;25.50;50.70;;;;;;1630053;71;812;-58
2023/07/01 02:29:50;;;;;;;;;;;25.50;50.90;;;;;;1638610;71;1169;-58
2023/07/01 02:31:52;;;;;;;;;;;25.50;50.70;;;;;;1630249;71;1963;-59
2023/07/01 02:33:56;;;;;;;;;;;25.50;50.70;;;;;;1626721;71;1508;-56
2023/07/01 02:35:58;;;;;;;;;;;25.50;50.80;;;;;;1627496;71;1461;-59
2023/07/01 02:38:00;;;;;;;;;;;25.50;50.70;;;;;;1618705;71;1184;-60
2023/07/01 02:40:04;;;;;;;;;;;25.50;50.70;;;;;;1632833;71;763;-58
2023/07/01 02:42:05;;;;;;;;;;;25.50;50.60;;;;;;1617953;71;1653;-59
2023/07/01 02:44:07;;;;;;;;;;;25.50;50.60;;;;;;1627165;71;811;-56
2023/07/01 02:46:09;;;;;;;;;;;25.50;50.70;;;;;;1628977;71;741;-59
2023/07/01 02:48:11;;;;;;;;;;;25.60;50.40;;;;;;1619645;71;1561;-59
2023/07/01 02:50:13;;;;;;;;;;;25.60;50.20;;;;;;1623760;71;1952;-60
2023/07/01 02:52:15;;;;;;;;;;;25.70;50.00;;;;;;1634525;71;725;-55
2023/07/01 02:54:17;;;;;;;;;;;25.70;49.90;;;;;;1613965;71;769;-56
2023/07/01 02:56:18;;;;;;;;;;;25.70;49.90;;;;;;1636631;71;771;-57
2023/07/01 02:58:22;;;;;;;;;;;25.70;49.70;;;;;;1643289;70;1135;-56
2023/07/01 03:00:24;;;;;;;;;;;25.80;49.70;;;;;;1630717;71;771;-59
2023/07/01 03:02:25;;;;;;;;;;;25.70;49.70;;;;;;1622913;71;1553;-59
2023/07/01 03:04:27;;;;;;;;;;;25.70;49.50;;;;;;1630121;71;785;-58
2023/07/01 03:06:29;;;;;;;;;;;25.80;49.40;;;;;;1616883;71;771;-57
2023/07/01 03:08:31;;;;;;;;;;;25.80;49.40;;;;;;1642852;71;1135;-58
2023/07/01 03:10:33;;;;;;;;;;;25.80;49.40;;;;;;1627617;71;1923;-56
2023/07/01 03:12:35;;;;;;;;;;;25.80;49.20;;;;;;1616153;71;728;-57
2023/07/01 03:14:37;;;;;;;;;;;25.80;49.50;;;;;;1632576;71;706;-58
2023/07/01 03:16:41;;;;;;;;;;;25.80;49.30;;;;;;1646335;71;1418;-57
2023/07/01 03:18:42;;;;;;;;;;;25.80;49.40;;;;;;1633983;71;1671;-60
2023/07/01 03:20:44;;;;;;;;;;;25.70;49.80;;;;;;1636185;71;773;-58
2023/07/01 03:22:46;;;;;;;;;;;25.80;49.50;;;;;;1636554;71;704;-57
2023/07/01 03:24:48;;;;;;;;;;;25.70;49.10;;;;;;1628625;71;714;-55
2023/07/01 03:26:50;;;;;;;;;;;25.70;49.30;;;;;;1643886;71;615;-57
2023/07/01 03:28:53;;;;;;;;;;;25.70;49.50;;;;;;1623476;71;1146;-59
2023/07/01 03:30:55;;;;;;;;;;;25.70;50.00;;;;;;1637746;71;1926;-58
2023/07/01 03:32:57;;;;;;;;;;;25.70;49.80;;;;;;1615826;71;605;-56
2023/07/01 03:34:59;;;;;;;;;;;25.80;49.80;;;;;;1635092;71;754;-58
2023/07/01 03:37:01;;;;;;;;;;;25.80;49.80;;;;;;1647762;71;796;-59
2023/07/01 03:39:03;;;;;;;;;;;25.80;49.90;;;;;;1642735;71;1152;-58
2023/07/01 03:41:09;;;;;;;;;;;25.80;49.90;;;;;;1628334;71;751;-61
2023/07/01 03:43:08;;;;;;;;;;;25.80;49.80;;;;;;1622815;71;1274;-59
2023/07/01 03:45:11;;;;;;;;;;;25.80;50.00;;;;;;1620311;71;717;-59
2023/07/01 03:47:13;;;;;;;;;;;25.70;50.00;;;;;;1629449;71;730;-59
2023/07/01 03:49:14;;;;;;;;;;;25.70;50.00;;;;;;1640652;71;1132;-58
2023/07/01 03:51:16;;;;;;;;;;;25.70;50.00;;;;;;1617185;71;1929;-58
2023/07/01 03:53:18;;;;;;;;;;;25.80;50.10;;;;;;1616253;71;596;-57
2023/07/01 03:55:20;;;;;;;;;;;25.70;50.10;;;;;;1626459;71;734;-57
2023/07/01 03:57:22;;;;;;;;;;;25.70;50.10;;;;;;1622810;71;1513;-56
2023/07/01 03:59:24;;;;;;;;;;;25.80;50.20;;;;;;1636093;71;1082;-58
2023/07/01 04:01:27;;;;;;;;;;;25.80;50.10;;;;;;1631593;71;714;-58
2023/07/01 04:03:28;;;;;;;;;;;25.80;49.90;;;;;;1616492;71;845;-58
2023/07/01 04:05:30;;;;;;;;;;;25.80;50.00;;;;;;1635231;71;719;-58
2023/07/01 04:07:32;;;;;;;;;;;25.80;50.10;;;;;;1642147;71;760;-59
2023/07/01 04:09:34;;;;;;;;;;;25.70;50.30;;;;;;1647260;71;1107;-57
2023/07/01 04:11:36;;;;;;;;;;;25.80;50.10;;;;;;1627083;71;1941;-57
2023/07/01 04:13:38;;;;;;;;;;;25.80;50.30;;;;;;1627707;71;724;-57
2023/07/01 04:15:40;;;;;;;;;;;25.70;50.00;;;;;;1638200;71;704;-59
2023/07/01 04:17:42;;;;;;;;;;;25.80;49.70;;;;;;1632441;71;785;-59
2023/07/01 04:19:44;;;;;;;;;;;25.80;49.60;;;;;;1627201;71;1097;-59
2023/07/01 04:21:46;;;;;;;;;;;25.80;49.40;;;;;;1625020;71;747;-58
2023/07/01 04:23:48;;;;;;;;;;;25.80;49.40;;;;;;1640988;71;734;-58
2023/07/01 04:25:50;;;;;;;;;;;25.70;49.40;;;;;;1635791;71;1521;-59
2023/07/01 04:27:52;;;;;;;;;;;25.80;49.20;;;;;;1613141;71;765;-58
2023/07/01 04:29:53;;;;;;;;;;;25.80;49.20;;;;;;1641395;71;741;-57
2023/07/01 04:31:55;;;;;;;;;;;25.80;49.10;;;;;;1628313;71;1939;-57
2023/07/01 04:33:57;;;;;;;;;;;25.80;49.20;;;;;;1641651;71;742;-59
2023/07/01 04:35:59;;;;;;;;;;;25.80;49.20;;;;;;1633286;71;782;-56
2023/07/01 04:38:01;;;;;;;;;;;25.90;49.20;;;;;;1619224;71;1157;-58
2023/07/01 04:40:04;;;;;;;;;;;25.90;49.50;;;;;;1623654;71;1526;-59
2023/07/01 04:42:06;;;;;;;;;;;25.80;49.80;;;;;;1650190;71;782;-58
2023/07/01 04:44:08;;;;;;;;;;;25.80;49.70;;;;;;1619895;71;678;-58
2023/07/01 04:46:10;;;;;;;;;;;25.80;49.40;;;;;;1625564;71;750;-58
2023/07/01 04:48:11;;;;;;;;;;;25.90;49.40;;;;;;1631164;71;1159;-59
2023/07/01 04:50:13;;;;;;;;;;;25.80;49.50;;;;;;1644271;71;765;-58
2023/07/01 04:52:15;;;;;;;;;;;25.80;49.40;;;;;;1623945;71;1935;-58
2023/07/01 04:54:17;;;;;;;;;;;25.80;49.40;;;;;;1631015;71;1538;-57
2023/07/01 04:56:23;;;;;;;;;;;25.90;49.30;;;;;;1633086;71;714;-59
2023/07/01 04:58:22;;;;;;;;;;;25.80;49.40;;;;;;1644329;70;1697;-58
2023/07/01 05:00:24;;;;;;;;;;;25.80;49.80;;;;;;1628809;71;709;-58
2023/07/01 05:02:26;;;;;;;;;;;25.80;49.80;;;;;;1635224;71;737;-59
2023/07/01 05:04:28;;;;;;;;;;;25.80;49.80;;;;;;1645018;71;671;-57
2023/07/01 05:06:31;;;;;;;;;;;25.70;49.40;;;;;;1617560;71;728;-56
2023/07/01 05:08:33;;;;;;;;;;;25.70;48.00;;;;;;1627162;71;1531;-61
2023/07/01 05:10:35;;;;;;;;;;;25.70;47.50;;;;;;1635288;71;730;-58
2023/07/01 05:12:37;;;;;;;;;;;25.70;47.30;;;;;;1643597;71;1926;-58
2023/07/01 05:14:39;;;;;;;;;;;25.70;47.30;;;;;;1629221;71;722;-56
2023/07/01 05:16:41;;;;;;;;;;;25.60;47.30;;;;;;1639914;71;640;-58
2023/07/01 05:18:42;;;;;;;;;;;25.60;47.90;;;;;;1631810;71;1131;-61
2023/07/01 05:20:44;;;;;;;;;;;25.50;48.60;;;;;;1628862;71;713;-59
2023/07/01 05:22:46;;;;;;;;;;;25.50;49.40;;;;;;1630040;71;1470;-59
2023/07/01 05:24:48;;;;;;;;;;;25.50;49.50;;;;;;1613619;71;772;-58
2023/07/01 05:26:51;;;;;;;;;;;25.50;49.40;;;;;;1619624;71;639;-57
2023/07/01 05:28:52;;;;;;;;;;;25.60;49.50;;;;;;1617414;71;1066;-59
2023/07/01 05:30:56;;;;;;;;;;;25.60;49.40;;;;;;1624244;71;675;-59
2023/07/01 05:32:58;;;;;;;;;;;25.60;49.70;;;;;;1634366;71;1936;-58
2023/07/01 05:34:59;;;;;;;;;;;25.70;49.80;;;;;;1615925;71;794;-58
2023/07/01 05:37:01;;;;;;;;;;;25.60;50.10;;;;;;1617673;71;1597;-58
2023/07/01 05:39:03;;;;;;;;;;;25.50;50.30;;;;;;1641542;71;1183;-57
2023/07/01 05:41:05;;;;;;;;;;;25.60;50.20;;;;;;1629457;71;624;-57
2023/07/01 05:43:07;;;;;;;;;;;25.50;50.40;;;;;;1619076;71;712;-59
2023/07/01 05:45:09;;;;;;;;;;;25.50;49.20;;;;;;1620801;71;708;-60
2023/07/01 05:47:11;;;;;;;;;;;25.50;47.80;;;;;;1624494;71;671;-59
2023/07/01 05:49:13;;;;;;;;;;;25.50;47.40;;;;;;1628409;71;1166;-58
2023/07/01 05:51:15;;;;;;;;;;;25.50;47.40;;;;;;1633639;71;1942;-59
2023/07/01 05:53:17;;;;;;;;;;;25.40;47.50;;;;;;1636065;71;1432;-58
2023/07/01 05:55:18;;;;;;;;;;;25.40;47.60;;;;;;1619967;71;1361;-59
2023/07/01 05:57:20;;;;;;;;;;;25.40;47.50;;;;;;1636580;71;1244;-59
2023/07/01 05:59:22;;;;;;;;;;;25.40;47.60;;;;;;1642917;70;1483;-58
2023/07/01 06:01:24;;;;;;;;;;;25.40;47.60;;;;;;1639455;71;1597;-59
2023/07/01 06:03:26;;;;;;;;;;;25.40;47.30;;;;;;1635698;71;1676;-60
2023/07/01 06:05:28;;;;;;;;;;;25.40;47.40;;;;;;1620609;71;1579;-59
2023/07/01 06:07:30;;;;;;;;;;;25.30;47.50;;;;;;1631350;71;1673;-59
2023/07/01 06:09:32;;;;;;;;;;;25.30;47.60;;;;;;1638420;71;1485;-59
2023/07/01 06:11:33;;;;;;;;;;;25.30;47.60;;;;;;1619304;71;1934;-58
2023/07/01 06:13:37;;;;;;;;;;;25.30;47.50;;;;;;1642070;71;1409;-59
2023/07/01 06:15:39;;;;;;;;;;;25.30;47.60;;;;;;1619870;71;1390;-59
2023/07/01 06:17:40;;;;;;;;;;;25.30;47.70;;;;;;1631748;71;1286;-60
2023/07/01 06:19:42;;;;;;;;;;;25.20;47.80;;;;;;1630493;71;1259;-59
2023/07/01 06:21:46;;;;;;;;;;;25.20;47.90;;;;;;1633579;71;1493;-58
2023/07/01 06:23:48;;;;;;;;;;;25.20;48.00;;;;;;1631020;71;1468;-59
2023/07/01 06:25:49;;;;;;;;;;;25.30;48.10;;;;;;1627157;71;1493;-59
2023/07/01 06:27:51;;;;;;;;;;;25.10;48.10;;;;;;1615666;71;1364;-57
2023/07/01 06:29:53;;;;;;;;;;;25.10;48.10;;;;;;1628634;71;1452;-58
2023/07/01 06:31:55;;;;;;;;;;;25.20;48.20;;;;;;1640930;71;1926;-59
2023/07/01 06:33:57;;;;;;;;;;;25.10;48.20;;;;;;1626936;71;1267;-59
2023/07/01 06:35:59;;;;;;;;;;;25.10;48.20;;;;;;1617085;71;1332;-58
2023/07/01 06:38:01;;;;;;;;;;;25.20;48.10;;;;;;1633416;71;1282;-58
2023/07/01 06:40:03;;;;;;;;;;;25.10;48.00;;;;;;1626586;71;1171;-58
2023/07/01 06:42:05;;;;;;;;;;;25.10;48.00;;;;;;1603976;71;1376;-60
2023/07/01 06:44:07;;;;;;;;;;;25.20;48.00;;;;;;1633500;71;1447;-60
2023/07/01 06:46:09;;;;;;;;;;;25.20;48.00;;;;;;1632185;71;1476;-59
2023/07/01 06:48:11;;;;;;;;;;;25.20;47.80;;;;;;1624856;71;1490;-59
2023/07/01 06:50:13;;;;;;;;;;;25.20;48.00;;;;;;1613185;71;1500;-60
2023/07/01 06:52:15;;;;;;;;;;;25.10;48.10;;;;;;1635229;71;1928;-58
2023/07/01 06:54:19;;;;;;;;;;;25.20;48.30;;;;;;1631625;71;1386;-58
2023/07/01 06:56:21;;;;;;;;;;;25.10;48.60;;;;;;1630435;71;1416;-60
2023/07/01 06:58:23;;;;;;;;;;;25.10;49.00;;;;;;1621271;71;1499;-59
2023/07/01 07:00:25;;;;;;;;;;;25.10;49.00;;;;;;1626785;71;1487;-59
2023/07/01 07:02:27;;;;;;;;;;;25.10;49.00;;;;;;1624584;71;1502;-58
2023/07/01 07:04:29;;;;;;;;;;;25.10;49.00;;;;;;1622318;71;1176;-59
2023/07/01 07:06:31;;;;;;;;;;;25.00;48.90;;;;;;1620114;71;1099;-59
2023/07/01 07:08:33;;;;;;;;;;;25.10;49.10;;;;;;1629832;71;1153;-61
2023/07/01 07:10:34;;;;;;;;;;;25.10;49.10;;;;;;1621532;71;789;-58
2023/07/01 07:12:36;;;;;;;;;;;25.00;49.30;;;;;;1643707;71;1928;-59
2023/07/01 07:14:39;;;;;;;;;;;25.10;49.40;;;;;;1636760;71;1571;-61
2023/07/01 07:16:47;;;;;;;;;;;25.00;49.10;;;;;;1635041;71;789;-60
2023/07/01 07:18:49;;;;;;;;;;;25.00;49.10;;;;;;1647101;71;1130;-60
2023/07/01 07:20:51;;;;;;;;;;;25.00;49.20;;;;;;1647687;71;788;-58
2023/07/01 07:22:53;;;;;;;;;;;25.00;49.20;;;;;;1633655;71;788;-58
2023/07/01 07:24:56;;;;;;;;;;;25.00;49.10;;;;;;1645270;71;712;-59
2023/07/01 07:27:00;;;;;;;;;;;25.00;49.00;;;;;;1617598;71;740;-58
2023/07/01 07:29:02;;;;;;;;;;;25.00;48.70;;;;;;1627325;71;1590;-58
2023/07/01 07:31:04;;;;;;;;;;;25.00;48.50;;;;;;1617914;71;791;-59
2023/07/01 07:33:07;;;;;;;;;;;25.00;48.50;;;;;;1615537;71;1937;-59
2023/07/01 07:35:09;;;;;;;;;;;25.00;48.50;;;;;;1630718;71;703;-58
2023/07/01 07:37:11;;;;;;;;;;;24.90;48.20;;;;;;1611378;71;759;-58
2023/07/01 07:39:13;;;;;;;;;;;24.90;48.10;;;;;;1617954;71;1145;-61
2023/07/01 07:41:16;;;;;;;;;;;25.00;48.10;;;;;;1619546;71;718;-58
2023/07/01 07:43:18;;;;;;;;;;;25.00;48.00;;;;;;1624789;71;1508;-58
2023/07/01 07:45:20;;;;;;;;;;;24.90;47.90;;;;;;1611160;71;796;-58
2023/07/01 07:47:22;;;;;;;;;;;24.90;47.60;;;;;;1631933;71;732;-59
2023/07/01 07:49:24;;;;;;;;;;;24.90;47.60;;;;;;1618957;71;1149;-58
2023/07/01 07:51:26;;;;;;;;;;;24.90;47.60;;;;;;1644359;71;761;-57
2023/07/01 07:53:27;;;;;;;;;;;24.80;47.60;;;;;;1621731;71;1932;-58
2023/07/01 07:55:33;;;;;;;;;;;24.90;47.80;;;;;;1628936;71;767;-58
2023/07/01 07:57:33;;;;;;;;;;;24.90;47.60;;;;;;1633091;71;1604;-58
2023/07/01 07:59:36;;;;;;;;;;;24.90;47.40;;;;;;1631598;71;1099;-58
2023/07/01 08:01:38;;;;;;;;;;;24.90;47.20;;;;;;1626633;71;810;-58
2023/07/01 08:03:40;;;;;;;;;;;24.80;47.10;;;;;;1634088;71;653;-56
2023/07/01 08:05:42;;;;;;;;;;;24.90;47.10;;;;;;1627611;71;638;-58
2023/07/01 08:07:45;;;;;;;;;;;24.80;47.20;;;;;;1635914;71;773;-58
2023/07/01 08:09:47;;;;;;;;;;;24.90;47.10;;;;;;1644646;71;1089;-58
2023/07/01 08:11:49;;;;;;;;;;;24.90;46.90;;;;;;1626774;71;1522;-60
2023/07/01 08:13:51;;;;;;;;;;;24.90;46.80;;;;;;1614074;71;1932;-60
2023/07/01 08:15:53;;;;;;;;;;;24.90;46.70;;;;;;1637628;71;783;-60
2023/07/01 08:17:55;;;;;;;;;;;24.80;46.50;;;;;;1629431;71;1148;-57
2023/07/01 08:19:57;;;;;;;;;;;24.80;46.50;;;;;;1608889;71;740;-58
2023/07/01 08:22:00;;;;;;;;;;;24.80;46.50;;;;;;1630496;71;674;-59
2023/07/01 08:24:02;;;;;;;;;;;24.80;46.50;;;;;;1646947;71;776;-59
2023/07/01 08:26:04;;;;;;;;;;;24.80;46.50;;;;;;1623692;71;1667;-58
2023/07/01 08:28:06;;;;;;;;;;;24.80;46.60;;;;;;1644233;71;1130;-60
2023/07/01 08:30:08;;;;;;;;;;;24.80;46.50;;;;;;1638581;71;953;-58
2023/07/01 08:32:10;;;;;;;;;;;24.80;46.00;;;;;;1633482;71;788;-59
2023/07/01 08:34:12;;;;;;;;;;;24.80;45.70;;;;;;1643863;71;1897;-59
2023/07/01 08:36:13;;;;;;;;;;;24.80;45.70;;;;;;1624647;71;786;-59
2023/07/01 08:38:15;;;;;;;;;;;24.80;45.70;;;;;;1651899;71;1216;-59
2023/07/01 08:40:17;;;;;;;;;;;24.80;45.70;;;;;;1621005;71;1438;-58
2023/07/01 08:42:19;;;;;;;;;;;24.80;45.60;;;;;;1643286;71;701;-59
2023/07/01 08:44:21;;;;;;;;;;;24.80;45.20;;;;;;1649437;71;699;-58
2023/07/01 08:46:23;;;;;;;;;;;24.80;45.00;;;;;;1636482;71;631;-59
2023/07/01 08:48:25;;;;;;;;;;;24.80;45.00;;;;;;1632475;71;1141;-61
2023/07/01 08:50:32;;;;;;;;;;;24.70;44.90;;;;;;1638575;71;779;-57
2023/07/01 08:52:38;;;;;;;;;;;24.80;44.50;;;;;;1644848;71;1930;-58
2023/07/01 08:54:40;;;;;;;;;;;24.70;44.50;;;;;;1637652;71;671;-58
2023/07/01 08:56:42;;;;;;;;;;;24.70;44.60;;;;;;1620379;71;727;-58
2023/07/01 08:58:43;;;;;;;;;;;24.70;44.60;;;;;;1622080;71;1164;-61
2023/07/01 09:00:45;;;;;;;;;;;24.70;44.70;;;;;;1612114;73;737;-59
2023/07/01 09:02:48;;;;;;;;;;;24.80;44.60;;;;;;1626908;71;737;-61
2023/07/01 09:04:50;;;;;;;;;;;24.80;44.40;;;;;;1607599;71;780;-57
2023/07/01 09:06:52;;;;;;;;;;;24.70;44.50;;;;;;1632824;71;1529;-58
2023/07/01 09:08:54;;;;;;;;;;;24.70;44.70;;;;;;1626117;71;1130;-58
2023/07/01 09:10:56;;;;;;;;;;;24.70;44.50;;;;;;1626428;71;829;-59
2023/07/01 09:12:59;;;;;;;;;;;24.80;44.60;;;;;;1621446;71;1975;-59
2023/07/01 09:15:05;;;;;;;;;;;24.70;44.60;;;;;;1604310;71;1156;-59
2023/07/01 09:17:08;;;;;;;;;;;24.60;44.50;;;;;;1621956;71;694;-58
2023/07/01 09:19:16;;;;;;;;;;;24.70;44.70;;;;;;1645357;71;1847;-58
2023/07/01 09:21:18;;;;;;;;;;;24.70;44.70;;;;;;1628828;71;1648;-58
2023/07/01 09:23:29;;;;;;;;;;;24.70;44.80;;;;;;1637616;71;708;-58
2023/07/01 09:25:31;;;;;;;;;;;24.60;44.60;;;;;;1633710;71;750;-60
2023/07/01 09:27:40;;;;;;;;;;;24.70;44.80;;;;;;1639712;71;766;-58
2023/07/01 09:29:42;;;;;;;;;;;24.60;44.50;;;;;;1632638;71;1050;-59
2023/07/01 09:31:45;;;;;;;;;;;24.60;44.50;;;;;;1634337;71;807;-60
2023/07/01 09:33:57;;;;;;;;;;;24.60;44.60;;;;;;1617973;71;1923;-58
2023/07/01 09:36:01;;;;;;;;;;;24.60;44.70;;;;;;1625608;71;1581;-59
2023/07/01 09:38:02;;;;;;;;;;;24.60;44.80;;;;;;1627506;71;1520;-58
2023/07/01 09:40:20;;;;;;;;;;;24.60;44.90;;;;;;1611277;71;776;-59
2023/07/01 09:42:22;;;;;;;;;;;24.70;44.90;;;;;;1623056;71;788;-58
2023/07/01 09:44:24;;;;;;;;;;;24.60;44.70;;;;;;1609299;71;676;-60
2023/07/01 09:46:34;;;;;;;;;;;24.70;44.80;;;;;;1644522;71;831;-59
2023/07/01 09:48:36;;;;;;;;;;;24.60;44.90;;;;;;1605497;71;1672;-58
2023/07/01 09:50:38;;;;;;;;;;;24.70;45.00;;;;;;1627375;71;799;-59
2023/07/01 09:52:40;;;;;;;;;;;24.60;44.90;;;;;;1620866;71;663;-58
2023/07/01 09:54:42;;;;;;;;;;;24.60;44.80;;;;;;1617590;71;750;-58
2023/07/01 09:56:44;;;;;;;;;;;24.60;44.70;;;;;;1624116;71;775;-58
2023/07/01 09:58:46;;;;;;;;;;;24.70;44.70;;;;;;1620416;71;1183;-57
2023/07/01 10:00:48;;;;;;;;;;;24.70;44.80;;;;;;1635284;71;681;-60
2023/07/01 10:02:50;;;;;;;;;;;24.60;44.70;;;;;;1639101;71;1502;-57
2023/07/01 10:04:53;;;;;;;;;;;24.60;44.80;;;;;;1622099;71;706;-58
2023/07/01 10:06:55;;;;;;;;;;;24.70;45.00;;;;;;1614076;71;748;-58
2023/07/01 10:08:56;;;;;;;;;;;24.70;45.00;;;;;;1630696;71;1102;-58
2023/07/01 10:11:00;;;;;;;;;;;24.70;45.10;;;;;;1643051;71;764;-58
2023/07/01 10:13:02;;;;;;;;;;;24.70;45.20;;;;;;1610153;71;1947;-58
2023/07/01 10:15:04;;;;;;;;;;;24.60;45.10;;;;;;1626613;71;762;-58
2023/07/01 10:17:06;;;;;;;;;;;24.70;45.30;;;;;;1623583;71;1316;-58
2023/07/01 10:19:10;;;;;;;;;;;24.60;45.20;;;;;;1650712;71;1082;-58
2023/07/01 10:21:26;;;;;;;;;;;24.70;45.40;;;;;;1623409;71;1916;-57
2023/07/01 10:23:29;;;;;;;;;;;24.70;45.40;;;;;;1624628;71;811;-58
2023/07/01 10:25:33;;;;;;;;;;;24.60;45.40;;;;;;1625492;71;974;-60
2023/07/01 10:27:42;;;;;;;;;;;24.70;45.50;;;;;;1610727;71;793;-58
2023/07/01 10:29:56;;;;;;;;;;;24.60;45.40;;;;;;1638165;71;1094;-58
2023/07/01 10:32:12;;;;;;;;;;;24.70;45.50;;;;;;1642367;71;1521;-60
2023/07/01 10:34:14;;;;;;;;;;;24.80;45.50;;;;;;1619657;71;1933;-57
2023/07/01 10:36:19;;;;;;;;;;;24.70;45.30;;;;;;1636858;71;681;-58
2023/07/01 10:38:25;;;;;;;;;;;24.60;45.20;;;;;;1640210;71;1156;-58
2023/07/01 10:40:26;;;;;;;;;;;24.70;45.30;;;;;;1626570;71;1890;-60
2023/07/01 10:42:34;;;;;;;;;;;24.70;45.30;;;;;;1621639;71;1132;-58
2023/07/01 10:44:36;;;;;;;;;;;24.70;45.10;;;;;;1617840;71;725;-58
2023/07/01 10:46:38;;;;;;;;;;;24.70;45.00;;;;;;1615761;71;1492;-60
2023/07/01 10:48:41;;;;;;;;;;;24.70;45.00;;;;;;1612635;71;1130;-58
2023/07/01 10:51:02;;;;;;;;;;;24.70;44.90;;;;;;1629621;71;746;-58
2023/07/01 10:53:04;;;;;;;;;;;24.70;44.90;;;;;;1627686;71;1907;-59
2023/07/01 10:55:07;;;;;;;;;;;24.70;44.70;;;;;;1623472;71;755;-58
2023/07/01 10:57:10;;;;;;;;;;;24.70;44.90;;;;;;1640288;71;1752;-58
2023/07/01 10:59:21;;;;;;;;;;;24.60;44.70;;;;;;1637787;71;1391;-58
2023/07/01 11:01:42;;;;;;;;;;;24.60;44.80;;;;;;1632951;71;758;-59
2023/07/01 11:03:48;;;;;;;;;;;24.70;44.80;;;;;;1631797;71;706;-60
2023/07/01 11:06:05;;;;;;;;;;;24.60;44.60;;;;;;1649398;71;734;-58
2023/07/01 11:08:08;;;;;;;;;;;24.60;44.60;;;;;;1610646;71;1146;-61
2023/07/01 11:10:10;;;;;;;;;;;24.60;44.60;;;;;;1622310;71;750;-59
2023/07/01 11:12:12;;;;;;;;;;;24.70;44.70;;;;;;1629598;71;774;-59
2023/07/01 11:14:14;;;;;;;;;;;24.60;44.60;;;;;;1636868;71;1943;-59
2023/07/01 11:16:16;;;;;;;;;;;24.70;44.80;;;;;;1639964;71;750;-59
2023/07/01 11:18:18;;;;;;;;;;;24.70;44.70;;;;;;1639226;71;1125;-59
2023/07/01 11:20:19;;;;;;;;;;;24.70;44.80;;;;;;1642454;71;759;-59
2023/07/01 11:22:21;;;;;;;;;;;24.70;44.70;;;;;;1635274;71;733;-59
2023/07/01 11:24:23;;;;;;;;;;;24.70;44.40;;;;;;1647564;71;696;-59
2023/07/01 11:26:26;;;;;;;;;;;24.70;44.30;;;;;;1637008;71;797;-58
2023/07/01 11:28:33;;;;;;;;;;;24.60;44.30;;;;;;1638811;71;1546;-61
2023/07/01 11:30:35;;;;;;;;;;;24.60;44.30;;;;;;1620951;71;1777;-60
2023/07/01 11:32:36;;;;;;;;;;;24.70;44.50;;;;;;1635780;71;796;-59
2023/07/01 11:34:39;;;;;;;;;;;24.70;44.60;;;;;;1615132;71;1928;-59
2023/07/01 11:36:43;;;;;;;;;;;24.70;44.70;;;;;;1627631;71;734;-59
2023/07/01 11:38:46;;;;;;;;;;;24.70;44.70;;;;;;1619853;70;1156;-60
2023/07/01 11:40:48;;;;;;;;;;;24.70;44.60;;;;;;1640105;71;734;-59
2023/07/01 11:42:50;;;;;;;;;;;24.60;44.40;;;;;;1649289;71;1379;-59
2023/07/01 11:44:51;;;;;;;;;;;24.70;44.10;;;;;;1632255;71;707;-60
2023/07/01 11:46:53;;;;;;;;;;;24.60;43.80;;;;;;1608084;71;699;-60
2023/07/01 11:48:55;;;;;;;;;;;24.60;43.70;;;;;;1637942;71;1157;-59
2023/07/01 11:50:57;;;;;;;;;;;24.60;43.60;;;;;;1642075;71;709;-58
2023/07/01 11:53:06;;;;;;;;;;;24.60;43.50;;;;;;1615438;71;728;-60
2023/07/01 11:55:08;;;;;;;;;;;24.70;43.50;;;;;;1645985;71;1950;-61
2023/07/01 11:57:15;;;;;;;;;;;24.60;43.40;;;;;;1624544;71;1711;-61
2023/07/01 11:59:16;;;;;;;;;;;24.70;43.60;;;;;;1614389;71;1854;-59
2023/07/01 12:01:24;;;;;;;;;;;24.60;43.40;;;;;;1620974;71;1855;-58
2023/07/01 12:03:33;;;;;;;;;;;24.70;43.70;;;;;;1643905;71;713;-59
2023/07/01 12:05:35;;;;;;;;;;;24.60;43.40;;;;;;1607874;71;699;-59
2023/07/01 12:07:38;;;;;;;;;;;24.60;43.40;;;;;;1608229;71;802;-59
2023/07/01 12:09:41;;;;;;;;;;;24.60;43.20;;;;;;1610127;71;1734;-60